sensor_id;sensor_type;location;lat;lon;timestamp;temperature;humidity
22623;DHT22;11478;51.094;7.030;2023-04-25T00:02:09;3.30;99.90
22623;DHT22;11478;51.094;7.030;2023-04-25T00:04:35;3.30;99.90
22623;DHT22;11478;51.094;7.030;2023-04-25T00:07:10;3.30;99.90
22623;DHT22;11478;51.094;7.030;2023-04-25T00:09:37;3.20;99.90
22623;DHT22;11478;51.094;7.030;2023-04-25T00:12:03;3.10;99.90
22623;DHT22;11478;51.094;7.030;2023-04-25T00:14:29;3.20;99.90
22623;DHT22;11478;51.094;7.030;2023-04-25T00:17:01;3.20;99.90
22623;DHT22;11478;51.094;7.030;2023-04-25T00:19:28;3.20;99.90
22623;DHT22;11478;51.094;7.030;2023-04-25T00:21:55;3.10;99.90
22623;DHT22;11478;51.094;7.030;2023-04-25T00:24:21;3.10;99.90
22623;DHT22;11478;51.094;7.030;2023-04-25T00:26:47;3.10;99.90
22623;DHT22;11478;51.094;7.030;2023-04-25T00:29:13;3.00;99.90
22623;DHT22;11478;51.094;7.030;2023-04-25T00:31:40;3.00;99.90
22623;DHT22;11478;51.094;7.030;2023-04-25T00:34:06;3.00;99.90
22623;DHT22;11478;51.094;7.030;2023-04-25T00:36:35;3.00;99.90
22623;DHT22;11478;51.094;7.030;2023-04-25T00:39:09;3.00;99.90
22623;DHT22;11478;51.094;7.030;2023-04-25T00:41:35;3.10;99.90
22623;DHT22;11478;51.094;7.030;2023-04-25T00:44:09;3.10;99.90
22623;DHT22;11478;51.094;7.030;2023-04-25T00:46:36;3.10;99.90
22623;DHT22;11478;51.094;7.030;2023-04-25T00:49:02;3.10;99.90
22623;DHT22;11478;51.094;7.030;2023-04-25T00:51:29;3.20;99.90
22623;DHT22;11478;51.094;7.030;2023-04-25T00:53:56;3.20;99.90
22623;DHT22;11478;51.094;7.030;2023-04-25T00:56:22;3.20;99.90
22623;DHT22;11478;51.094;7.030;2023-04-25T00:58:53;3.30;99.90
22623;DHT22;11478;51.094;7.030;2023-04-25T01:01:20;3.40;99.90
22623;DHT22;11478;51.094;7.030;2023-04-25T01:03:53;3.40;99.90
22623;DHT22;11478;51.094;7.030;2023-04-25T01:06:19;3.40;99.90
22623;DHT22;11478;51.094;7.030;2023-04-25T01:09:04;3.50;99.90
22623;DHT22;11478;51.094;7.030;2023-04-25T01:11:30;3.50;99.90
22623;DHT22;11478;51.094;7.030;2023-04-25T01:13:59;3.60;99.90
22623;DHT22;11478;51.094;7.030;2023-04-25T01:16:25;3.60;99.90
22623;DHT22;11478;51.094;7.030;2023-04-25T01:19:14;3.60;99.90
22623;DHT22;11478;51.094;7.030;2023-04-25T01:21:42;3.60;99.90
22623;DHT22;11478;51.094;7.030;2023-04-25T01:24:17;3.60;99.90
22623;DHT22;11478;51.094;7.030;2023-04-25T01:26:43;3.70;99.90
22623;DHT22;11478;51.094;7.030;2023-04-25T01:29:19;3.70;99.90
22623;DHT22;11478;51.094;7.030;2023-04-25T01:31:46;3.70;99.90
22623;DHT22;11478;51.094;7.030;2023-04-25T01:34:14;3.80;99.90
22623;DHT22;11478;51.094;7.030;2023-04-25T01:36:40;3.80;99.90
22623;DHT22;11478;51.094;7.030;2023-04-25T01:39:06;3.90;99.90
22623;DHT22;11478;51.094;7.030;2023-04-25T01:41:33;3.90;99.90
22623;DHT22;11478;51.094;7.030;2023-04-25T01:44:03;3.90;99.90
22623;DHT22;11478;51.094;7.030;2023-04-25T01:46:30;4.00;99.90
22623;DHT22;11478;51.094;7.030;2023-04-25T01:48:56;4.00;99.90
22623;DHT22;11478;51.094;7.030;2023-04-25T01:51:23;4.10;99.90
22623;DHT22;11478;51.094;7.030;2023-04-25T01:53:49;4.10;99.90
22623;DHT22;11478;51.094;7.030;2023-04-25T01:56:18;4.10;99.90
22623;DHT22;11478;51.094;7.030;2023-04-25T01:58:44;4.10;99.90
22623;DHT22;11478;51.094;7.030;2023-04-25T02:01:19;4.10;99.90
22623;DHT22;11478;51.094;7.030;2023-04-25T02:03:45;4.20;99.90
22623;DHT22;11478;51.094;7.030;2023-04-25T02:06:11;4.20;99.90
22623;DHT22;11478;51.094;7.030;2023-04-25T02:08:37;4.20;99.90
22623;DHT22;11478;51.094;7.030;2023-04-25T02:11:03;4.20;99.90
22623;DHT22;11478;51.094;7.030;2023-04-25T02:13:29;4.20;99.90
22623;DHT22;11478;51.094;7.030;2023-04-25T02:15:57;4.20;99.90
22623;DHT22;11478;51.094;7.030;2023-04-25T02:18:22;4.20;99.90
22623;DHT22;11478;51.094;7.030;2023-04-25T02:20:49;4.20;99.90
22623;DHT22;11478;51.094;7.030;2023-04-25T02:23:15;4.20;99.90
22623;DHT22;11478;51.094;7.030;2023-04-25T02:25:51;4.30;99.90
22623;DHT22;11478;51.094;7.030;2023-04-25T02:28:17;4.30;99.90
22623;DHT22;11478;51.094;7.030;2023-04-25T02:30:50;4.30;99.90
22623;DHT22;11478;51.094;7.030;2023-04-25T02:33:16;4.30;99.90
22623;DHT22;11478;51.094;7.030;2023-04-25T02:35:42;4.30;99.90
22623;DHT22;11478;51.094;7.030;2023-04-25T02:38:08;4.40;99.90
22623;DHT22;11478;51.094;7.030;2023-04-25T02:40:34;4.40;99.90
22623;DHT22;11478;51.094;7.030;2023-04-25T02:43:00;4.40;99.90
22623;DHT22;11478;51.094;7.030;2023-04-25T02:45:26;4.50;99.90
22623;DHT22;11478;51.094;7.030;2023-04-25T02:47:52;4.50;99.90
22623;DHT22;11478;51.094;7.030;2023-04-25T02:50:19;4.60;99.90
22623;DHT22;11478;51.094;7.030;2023-04-25T02:52:45;4.60;99.90
22623;DHT22;11478;51.094;7.030;2023-04-25T02:55:16;4.70;99.90
22623;DHT22;11478;51.094;7.030;2023-04-25T02:57:42;4.70;99.90
22623;DHT22;11478;51.094;7.030;2023-04-25T03:00:10;4.80;99.90
22623;DHT22;11478;51.094;7.030;2023-04-25T03:03:00;4.80;99.90
22623;DHT22;11478;51.094;7.030;2023-04-25T03:05:26;4.90;99.90
22623;DHT22;11478;51.094;7.030;2023-04-25T03:07:54;4.90;99.90
22623;DHT22;11478;51.094;7.030;2023-04-25T03:10:20;4.90;99.90
22623;DHT22;11478;51.094;7.030;2023-04-25T03:12:49;4.90;99.90
22623;DHT22;11478;51.094;7.030;2023-04-25T03:15:15;5.00;99.90
22623;DHT22;11478;51.094;7.030;2023-04-25T03:17:42;5.00;99.90
22623;DHT22;11478;51.094;7.030;2023-04-25T03:20:09;5.00;99.90
22623;DHT22;11478;51.094;7.030;2023-04-25T03:22:37;5.00;99.90
22623;DHT22;11478;51.094;7.030;2023-04-25T03:25:03;5.10;99.90
22623;DHT22;11478;51.094;7.030;2023-04-25T03:27:30;5.10;99.90
22623;DHT22;11478;51.094;7.030;2023-04-25T03:29:56;5.10;99.90
22623;DHT22;11478;51.094;7.030;2023-04-25T03:32:23;5.10;99.90
22623;DHT22;11478;51.094;7.030;2023-04-25T03:34:49;5.20;99.90
22623;DHT22;11478;51.094;7.030;2023-04-25T03:37:17;5.10;99.90
22623;DHT22;11478;51.094;7.030;2023-04-25T03:39:43;5.10;99.90
22623;DHT22;11478;51.094;7.030;2023-04-25T03:42:09;5.20;99.90
22623;DHT22;11478;51.094;7.030;2023-04-25T03:44:35;5.20;99.90
22623;DHT22;11478;51.094;7.030;2023-04-25T03:47:01;5.20;99.90
22623;DHT22;11478;51.094;7.030;2023-04-25T03:49:28;5.20;99.90
22623;DHT22;11478;51.094;7.030;2023-04-25T03:51:53;5.20;99.90
22623;DHT22;11478;51.094;7.030;2023-04-25T03:54:20;5.20;99.90
22623;DHT22;11478;51.094;7.030;2023-04-25T03:56:46;5.30;99.90
22623;DHT22;11478;51.094;7.030;2023-04-25T03:59:12;5.30;99.90
22623;DHT22;11478;51.094;7.030;2023-04-25T04:01:38;5.30;99.90
22623;DHT22;11478;51.094;7.030;2023-04-25T04:04:04;5.30;99.90
22623;DHT22;11478;51.094;7.030;2023-04-25T04:06:30;5.30;99.90
22623;DHT22;11478;51.094;7.030;2023-04-25T04:09:00;5.30;99.90
22623;DHT22;11478;51.094;7.030;2023-04-25T04:11:26;5.30;99.90
22623;DHT22;11478;51.094;7.030;2023-04-25T04:13:52;5.30;99.90
22623;DHT22;11478;51.094;7.030;2023-04-25T04:16:18;5.30;99.90
22623;DHT22;11478;51.094;7.030;2023-04-25T04:18:46;5.40;99.90
22623;DHT22;11478;51.094;7.030;2023-04-25T04:21:12;5.40;99.90
22623;DHT22;11478;51.094;7.030;2023-04-25T04:23:48;5.40;99.90
22623;DHT22;11478;51.094;7.030;2023-04-25T04:26:14;5.50;99.90
22623;DHT22;11478;51.094;7.030;2023-04-25T04:28:45;5.50;99.90
22623;DHT22;11478;51.094;7.030;2023-04-25T04:31:11;5.50;99.90
22623;DHT22;11478;51.094;7.030;2023-04-25T04:33:40;5.50;99.90
22623;DHT22;11478;51.094;7.030;2023-04-25T04:36:06;5.60;99.90
22623;DHT22;11478;51.094;7.030;2023-04-25T04:38:34;5.60;99.90
22623;DHT22;11478;51.094;7.030;2023-04-25T04:41:14;5.60;99.90
22623;DHT22;11478;51.094;7.030;2023-04-25T04:43:40;5.60;99.90
22623;DHT22;11478;51.094;7.030;2023-04-25T04:46:09;5.70;99.90
22623;DHT22;11478;51.094;7.030;2023-04-25T04:48:35;5.70;99.90
22623;DHT22;11478;51.094;7.030;2023-04-25T04:51:05;5.70;99.90
22623;DHT22;11478;51.094;7.030;2023-04-25T04:53:31;5.80;99.90
22623;DHT22;11478;51.094;7.030;2023-04-25T04:55:58;5.80;99.90
22623;DHT22;11478;51.094;7.030;2023-04-25T04:58:27;5.90;99.90
22623;DHT22;11478;51.094;7.030;2023-04-25T05:00:55;5.90;99.90
22623;DHT22;11478;51.094;7.030;2023-04-25T05:03:21;5.90;99.90
22623;DHT22;11478;51.094;7.030;2023-04-25T05:05:52;6.00;99.90
22623;DHT22;11478;51.094;7.030;2023-04-25T05:08:18;6.00;99.90
22623;DHT22;11478;51.094;7.030;2023-04-25T05:10:46;6.00;99.90
22623;DHT22;11478;51.094;7.030;2023-04-25T05:13:11;6.10;99.90
22623;DHT22;11478;51.094;7.030;2023-04-25T05:15:37;6.10;99.90
22623;DHT22;11478;51.094;7.030;2023-04-25T05:18:03;6.00;99.90
22623;DHT22;11478;51.094;7.030;2023-04-25T05:20:35;6.00;99.90
22623;DHT22;11478;51.094;7.030;2023-04-25T05:23:02;6.00;99.90
22623;DHT22;11478;51.094;7.030;2023-04-25T05:25:38;6.00;99.90
22623;DHT22;11478;51.094;7.030;2023-04-25T05:28:04;5.90;99.90
22623;DHT22;11478;51.094;7.030;2023-04-25T05:30:32;5.90;99.90
22623;DHT22;11478;51.094;7.030;2023-04-25T05:32:58;5.90;99.90
22623;DHT22;11478;51.094;7.030;2023-04-25T05:35:25;6.00;99.90
22623;DHT22;11478;51.094;7.030;2023-04-25T05:37:51;6.00;99.90
22623;DHT22;11478;51.094;7.030;2023-04-25T05:40:16;6.10;99.90
22623;DHT22;11478;51.094;7.030;2023-04-25T05:42:42;6.20;99.90
22623;DHT22;11478;51.094;7.030;2023-04-25T05:45:17;6.30;99.90
22623;DHT22;11478;51.094;7.030;2023-04-25T05:47:43;6.30;99.90
22623;DHT22;11478;51.094;7.030;2023-04-25T05:50:09;6.40;99.90
22623;DHT22;11478;51.094;7.030;2023-04-25T05:52:35;6.50;99.90
22623;DHT22;11478;51.094;7.030;2023-04-25T05:55:01;6.80;99.90
22623;DHT22;11478;51.094;7.030;2023-04-25T05:57:27;7.40;99.90
22623;DHT22;11478;51.094;7.030;2023-04-25T05:59:53;7.90;99.90
22623;DHT22;11478;51.094;7.030;2023-04-25T06:02:20;8.20;99.90
22623;DHT22;11478;51.094;7.030;2023-04-25T06:05:02;8.40;99.90
22623;DHT22;11478;51.094;7.030;2023-04-25T06:07:31;8.50;99.90
22623;DHT22;11478;51.094;7.030;2023-04-25T06:09:57;8.60;99.90
22623;DHT22;11478;51.094;7.030;2023-04-25T06:12:23;9.00;99.90
22623;DHT22;11478;51.094;7.030;2023-04-25T06:14:49;9.20;99.90
22623;DHT22;11478;51.094;7.030;2023-04-25T06:17:15;9.00;99.90
22623;DHT22;11478;51.094;7.030;2023-04-25T06:19:41;8.80;99.90
22623;DHT22;11478;51.094;7.030;2023-04-25T06:22:07;8.50;99.90
22623;DHT22;11478;51.094;7.030;2023-04-25T06:24:34;8.30;99.90
22623;DHT22;11478;51.094;7.030;2023-04-25T06:27:00;8.10;99.90
22623;DHT22;11478;51.094;7.030;2023-04-25T06:29:29;8.00;99.90
22623;DHT22;11478;51.094;7.030;2023-04-25T06:32:01;7.90;99.90
22623;DHT22;11478;51.094;7.030;2023-04-25T06:37:57;7.60;99.90
22623;DHT22;11478;51.094;7.030;2023-04-25T06:40:24;7.50;99.90
22623;DHT22;11478;51.094;7.030;2023-04-25T06:43:00;7.50;99.90
22623;DHT22;11478;51.094;7.030;2023-04-25T06:45:25;7.50;99.90
22623;DHT22;11478;51.094;7.030;2023-04-25T06:47:53;7.60;99.90
22623;DHT22;11478;51.094;7.030;2023-04-25T06:50:22;7.70;99.90
22623;DHT22;11478;51.094;7.030;2023-04-25T06:52:53;7.70;99.90
22623;DHT22;11478;51.094;7.030;2023-04-25T06:55:22;7.80;99.90
22623;DHT22;11478;51.094;7.030;2023-04-25T06:57:54;7.80;99.90
22623;DHT22;11478;51.094;7.030;2023-04-25T07:00:26;8.00;99.90
22623;DHT22;11478;51.094;7.030;2023-04-25T07:02:59;8.10;99.90
22623;DHT22;11478;51.094;7.030;2023-04-25T07:05:28;8.20;99.90
22623;DHT22;11478;51.094;7.030;2023-04-25T07:07:56;8.30;99.90
22623;DHT22;11478;51.094;7.030;2023-04-25T07:10:26;8.40;99.90
22623;DHT22;11478;51.094;7.030;2023-04-25T07:12:58;8.40;99.90
22623;DHT22;11478;51.094;7.030;2023-04-25T07:15:24;8.40;99.90
22623;DHT22;11478;51.094;7.030;2023-04-25T07:17:56;8.40;99.90
22623;DHT22;11478;51.094;7.030;2023-04-25T07:20:22;8.30;99.90
22623;DHT22;11478;51.094;7.030;2023-04-25T07:22:49;8.20;99.90
22623;DHT22;11478;51.094;7.030;2023-04-25T07:25:16;8.10;99.90
22623;DHT22;11478;51.094;7.030;2023-04-25T07:27:54;8.10;99.90
22623;DHT22;11478;51.094;7.030;2023-04-25T07:30:23;8.10;99.90
22623;DHT22;11478;51.094;7.030;2023-04-25T07:33:04;8.90;99.90
22623;DHT22;11478;51.094;7.030;2023-04-25T07:35:30;11.20;99.90
22623;DHT22;11478;51.094;7.030;2023-04-25T07:38:09;12.80;99.90
22623;DHT22;11478;51.094;7.030;2023-04-25T07:40:35;13.90;99.90
22623;DHT22;11478;51.094;7.030;2023-04-25T07:43:02;13.80;99.90
22623;DHT22;11478;51.094;7.030;2023-04-25T07:45:28;13.40;99.90
22623;DHT22;11478;51.094;7.030;2023-04-25T07:47:55;13.20;99.90
22623;DHT22;11478;51.094;7.030;2023-04-25T07:50:24;12.60;99.90
22623;DHT22;11478;51.094;7.030;2023-04-25T07:52:52;11.90;99.90
22623;DHT22;11478;51.094;7.030;2023-04-25T07:55:18;11.40;99.90
22623;DHT22;11478;51.094;7.030;2023-04-25T07:57:47;11.10;99.90
22623;DHT22;11478;51.094;7.030;2023-04-25T08:00:13;10.90;99.90
22623;DHT22;11478;51.094;7.030;2023-04-25T08:02:59;10.60;99.90
22623;DHT22;11478;51.094;7.030;2023-04-25T08:05:28;10.40;99.90
22623;DHT22;11478;51.094;7.030;2023-04-25T08:08:06;10.30;99.90
22623;DHT22;11478;51.094;7.030;2023-04-25T08:10:33;10.10;99.90
22623;DHT22;11478;51.094;7.030;2023-04-25T08:12:59;9.90;99.90
22623;DHT22;11478;51.094;7.030;2023-04-25T08:15:29;9.70;99.90
22623;DHT22;11478;51.094;7.030;2023-04-25T08:17:57;9.40;99.90
22623;DHT22;11478;51.094;7.030;2023-04-25T08:20:26;9.20;99.90
22623;DHT22;11478;51.094;7.030;2023-04-25T08:22:58;9.00;99.90
22623;DHT22;11478;51.094;7.030;2023-04-25T08:25:24;8.90;99.90
22623;DHT22;11478;51.094;7.030;2023-04-25T08:27:55;8.80;99.90
22623;DHT22;11478;51.094;7.030;2023-04-25T08:30:28;8.60;99.90
22623;DHT22;11478;51.094;7.030;2023-04-25T08:32:58;8.60;99.90
22623;DHT22;11478;51.094;7.030;2023-04-25T08:35:27;8.50;99.90
22623;DHT22;11478;51.094;7.030;2023-04-25T08:37:58;8.40;99.90
22623;DHT22;11478;51.094;7.030;2023-04-25T08:40:27;8.40;99.90
22623;DHT22;11478;51.094;7.030;2023-04-25T08:42:59;8.40;99.90
22623;DHT22;11478;51.094;7.030;2023-04-25T08:45:31;8.40;99.90
22623;DHT22;11478;51.094;7.030;2023-04-25T08:47:57;8.40;99.90
22623;DHT22;11478;51.094;7.030;2023-04-25T08:50:28;8.40;99.90
22623;DHT22;11478;51.094;7.030;2023-04-25T08:56:16;8.60;99.90
22623;DHT22;11478;51.094;7.030;2023-04-25T08:58:44;9.00;99.90
22623;DHT22;11478;51.094;7.030;2023-04-25T09:01:12;10.00;99.90
22623;DHT22;11478;51.094;7.030;2023-04-25T09:03:38;11.00;99.90
22623;DHT22;11478;51.094;7.030;2023-04-25T09:06:07;11.60;99.90
22623;DHT22;11478;51.094;7.030;2023-04-25T09:08:38;11.60;99.90
22623;DHT22;11478;51.094;7.030;2023-04-25T09:11:15;11.20;99.90
22623;DHT22;11478;51.094;7.030;2023-04-25T09:13:42;10.90;99.90
22623;DHT22;11478;51.094;7.030;2023-04-25T09:16:08;10.40;99.90
22623;DHT22;11478;51.094;7.030;2023-04-25T09:18:35;10.20;99.90
22623;DHT22;11478;51.094;7.030;2023-04-25T09:21:11;10.00;99.90
22623;DHT22;11478;51.094;7.030;2023-04-25T09:23:49;9.80;99.90
22623;DHT22;11478;51.094;7.030;2023-04-25T09:26:28;9.80;99.90
22623;DHT22;11478;51.094;7.030;2023-04-25T09:29:07;10.20;99.90
22623;DHT22;11478;51.094;7.030;2023-04-25T09:31:35;11.00;99.90
22623;DHT22;11478;51.094;7.030;2023-04-25T09:34:03;11.20;99.90
22623;DHT22;11478;51.094;7.030;2023-04-25T09:36:33;11.10;99.90
22623;DHT22;11478;51.094;7.030;2023-04-25T09:39:02;10.70;99.90
22623;DHT22;11478;51.094;7.030;2023-04-25T09:41:31;10.40;99.90
22623;DHT22;11478;51.094;7.030;2023-04-25T09:44:01;10.30;99.90
22623;DHT22;11478;51.094;7.030;2023-04-25T09:46:35;10.40;99.90
22623;DHT22;11478;51.094;7.030;2023-04-25T09:49:07;10.60;99.90
22623;DHT22;11478;51.094;7.030;2023-04-25T09:51:37;10.60;99.90
22623;DHT22;11478;51.094;7.030;2023-04-25T09:54:03;10.80;99.90
22623;DHT22;11478;51.094;7.030;2023-04-25T09:56:41;11.00;99.90
22623;DHT22;11478;51.094;7.030;2023-04-25T09:59:08;11.20;99.90
22623;DHT22;11478;51.094;7.030;2023-04-25T10:01:40;11.40;99.90
22623;DHT22;11478;51.094;7.030;2023-04-25T10:04:11;11.60;99.90
22623;DHT22;11478;51.094;7.030;2023-04-25T10:06:38;11.40;99.90
22623;DHT22;11478;51.094;7.030;2023-04-25T10:09:07;11.60;99.90
22623;DHT22;11478;51.094;7.030;2023-04-25T10:11:34;12.30;99.90
22623;DHT22;11478;51.094;7.030;2023-04-25T10:14:04;13.00;99.90
22623;DHT22;11478;51.094;7.030;2023-04-25T10:16:49;13.50;99.90
22623;DHT22;11478;51.094;7.030;2023-04-25T10:19:20;13.70;99.90
22623;DHT22;11478;51.094;7.030;2023-04-25T10:22:00;13.50;99.90
22623;DHT22;11478;51.094;7.030;2023-04-25T10:24:36;13.20;99.90
22623;DHT22;11478;51.094;7.030;2023-04-25T10:27:06;12.60;99.90
22623;DHT22;11478;51.094;7.030;2023-04-25T10:29:32;12.10;99.90
22623;DHT22;11478;51.094;7.030;2023-04-25T10:31:59;11.70;99.90
22623;DHT22;11478;51.094;7.030;2023-04-25T10:34:43;11.40;99.90
22623;DHT22;11478;51.094;7.030;2023-04-25T10:37:12;11.00;99.90
22623;DHT22;11478;51.094;7.030;2023-04-25T10:39:40;10.70;99.90
22623;DHT22;11478;51.094;7.030;2023-04-25T10:42:18;10.50;99.90
22623;DHT22;11478;51.094;7.030;2023-04-25T10:45:01;10.40;99.90
22623;DHT22;11478;51.094;7.030;2023-04-25T10:47:35;10.30;99.90
22623;DHT22;11478;51.094;7.030;2023-04-25T10:50:08;10.20;99.90
22623;DHT22;11478;51.094;7.030;2023-04-25T10:52:34;10.40;99.90
22623;DHT22;11478;51.094;7.030;2023-04-25T10:55:12;10.60;99.90
22623;DHT22;11478;51.094;7.030;2023-04-25T10:57:44;10.90;99.90
22623;DHT22;11478;51.094;7.030;2023-04-25T11:00:20;11.10;99.90
22623;DHT22;11478;51.094;7.030;2023-04-25T11:02:52;11.10;99.90
22623;DHT22;11478;51.094;7.030;2023-04-25T11:05:22;10.90;99.90
22623;DHT22;11478;51.094;7.030;2023-04-25T11:07:49;10.70;99.90
22623;DHT22;11478;51.094;7.030;2023-04-25T11:10:16;10.60;99.90
22623;DHT22;11478;51.094;7.030;2023-04-25T11:12:42;10.60;99.90
22623;DHT22;11478;51.094;7.030;2023-04-25T11:15:09;10.60;99.90
22623;DHT22;11478;51.094;7.030;2023-04-25T11:17:35;10.60;99.90
22623;DHT22;11478;51.094;7.030;2023-04-25T11:20:08;10.60;99.90
22623;DHT22;11478;51.094;7.030;2023-04-25T11:22:40;10.70;99.90
22623;DHT22;11478;51.094;7.030;2023-04-25T11:25:08;10.80;99.90
22623;DHT22;11478;51.094;7.030;2023-04-25T11:27:38;10.90;99.90
22623;DHT22;11478;51.094;7.030;2023-04-25T11:30:14;11.10;99.90
22623;DHT22;11478;51.094;7.030;2023-04-25T11:32:43;11.40;99.90
22623;DHT22;11478;51.094;7.030;2023-04-25T11:35:13;11.60;99.90
22623;DHT22;11478;51.094;7.030;2023-04-25T11:37:46;11.60;99.90
22623;DHT22;11478;51.094;7.030;2023-04-25T11:40:14;11.60;99.90
22623;DHT22;11478;51.094;7.030;2023-04-25T11:42:44;11.70;99.90
22623;DHT22;11478;51.094;7.030;2023-04-25T11:45:12;11.70;99.90
22623;DHT22;11478;51.094;7.030;2023-04-25T11:47:37;11.80;99.90
22623;DHT22;11478;51.094;7.030;2023-04-25T11:50:09;11.90;99.90
22623;DHT22;11478;51.094;7.030;2023-04-25T11:52:43;11.70;99.90
22623;DHT22;11478;51.094;7.030;2023-04-25T11:55:31;11.80;99.90
22623;DHT22;11478;51.094;7.030;2023-04-25T11:58:06;11.90;99.90
22623;DHT22;11478;51.094;7.030;2023-04-25T12:00:33;12.40;99.90
22623;DHT22;11478;51.094;7.030;2023-04-25T12:03:08;12.90;99.90
22623;DHT22;11478;51.094;7.030;2023-04-25T12:05:38;13.20;96.40
22623;DHT22;11478;51.094;7.030;2023-04-25T12:08:12;13.40;96.70
22623;DHT22;11478;51.094;7.030;2023-04-25T12:10:39;13.50;97.20
22623;DHT22;11478;51.094;7.030;2023-04-25T12:13:25;13.60;96.40
22623;DHT22;11478;51.094;7.030;2023-04-25T12:15:54;13.50;94.60
22623;DHT22;11478;51.094;7.030;2023-04-25T12:18:23;13.10;96.40
22623;DHT22;11478;51.094;7.030;2023-04-25T12:20:55;13.00;98.20
22623;DHT22;11478;51.094;7.030;2023-04-25T12:23:28;13.00;98.80
22623;DHT22;11478;51.094;7.030;2023-04-25T12:25:54;13.20;95.20
22623;DHT22;11478;51.094;7.030;2023-04-25T12:28:32;13.10;96.20
22623;DHT22;11478;51.094;7.030;2023-04-25T12:31:03;12.90;98.80
22623;DHT22;11478;51.094;7.030;2023-04-25T12:33:37;12.90;99.30
22623;DHT22;11478;51.094;7.030;2023-04-25T12:36:05;12.80;97.20
22623;DHT22;11478;51.094;7.030;2023-04-25T12:38:43;12.70;99.90
22623;DHT22;11478;51.094;7.030;2023-04-25T12:41:09;12.50;99.90
22623;DHT22;11478;51.094;7.030;2023-04-25T12:43:35;12.10;99.90
22623;DHT22;11478;51.094;7.030;2023-04-25T12:46:03;11.80;99.90
22623;DHT22;11478;51.094;7.030;2023-04-25T12:48:29;11.50;99.90
22623;DHT22;11478;51.094;7.030;2023-04-25T12:50:57;11.30;99.90
22623;DHT22;11478;51.094;7.030;2023-04-25T12:53:23;11.10;99.90
22623;DHT22;11478;51.094;7.030;2023-04-25T12:55:53;10.80;99.90
22623;DHT22;11478;51.094;7.030;2023-04-25T12:58:19;10.50;99.90
22623;DHT22;11478;51.094;7.030;2023-04-25T13:00:51;10.30;99.90
22623;DHT22;11478;51.094;7.030;2023-04-25T13:03:17;10.10;99.90
22623;DHT22;11478;51.094;7.030;2023-04-25T13:05:44;9.90;99.90
22623;DHT22;11478;51.094;7.030;2023-04-25T13:08:10;9.70;99.90
22623;DHT22;11478;51.094;7.030;2023-04-25T13:10:39;9.60;99.90
22623;DHT22;11478;51.094;7.030;2023-04-25T13:13:05;9.50;99.90
22623;DHT22;11478;51.094;7.030;2023-04-25T13:15:34;9.30;99.90
22623;DHT22;11478;51.094;7.030;2023-04-25T13:18:01;9.10;99.90
22623;DHT22;11478;51.094;7.030;2023-04-25T13:20:34;8.90;99.90
22623;DHT22;11478;51.094;7.030;2023-04-25T13:23:21;8.70;99.90
22623;DHT22;11478;51.094;7.030;2023-04-25T13:25:48;8.80;99.90
22623;DHT22;11478;51.094;7.030;2023-04-25T13:28:14;9.10;99.90
22623;DHT22;11478;51.094;7.030;2023-04-25T13:30:41;9.50;99.90
22623;DHT22;11478;51.094;7.030;2023-04-25T13:33:19;10.00;99.90
22623;DHT22;11478;51.094;7.030;2023-04-25T13:35:47;10.30;99.90
22623;DHT22;11478;51.094;7.030;2023-04-25T13:38:22;10.60;99.90
22623;DHT22;11478;51.094;7.030;2023-04-25T13:40:48;10.70;99.90
22623;DHT22;11478;51.094;7.030;2023-04-25T13:43:24;10.80;99.90
22623;DHT22;11478;51.094;7.030;2023-04-25T13:45:50;10.80;99.90
22623;DHT22;11478;51.094;7.030;2023-04-25T13:48:18;10.80;99.90
22623;DHT22;11478;51.094;7.030;2023-04-25T13:50:52;10.60;99.90
22623;DHT22;11478;51.094;7.030;2023-04-25T13:53:18;10.50;99.90
22623;DHT22;11478;51.094;7.030;2023-04-25T13:55:44;10.40;99.90
22623;DHT22;11478;51.094;7.030;2023-04-25T13:58:10;10.40;99.90
22623;DHT22;11478;51.094;7.030;2023-04-25T14:00:45;10.50;99.90
22623;DHT22;11478;51.094;7.030;2023-04-25T14:03:14;10.60;99.90
22623;DHT22;11478;51.094;7.030;2023-04-25T14:05:48;10.50;99.90
22623;DHT22;11478;51.094;7.030;2023-04-25T14:08:17;10.60;99.90
22623;DHT22;11478;51.094;7.030;2023-04-25T14:10:58;10.60;99.90
22623;DHT22;11478;51.094;7.030;2023-04-25T14:13:50;10.70;99.90
22623;DHT22;11478;51.094;7.030;2023-04-25T14:16:16;10.90;99.90
22623;DHT22;11478;51.094;7.030;2023-04-25T14:18:42;11.10;99.90
22623;DHT22;11478;51.094;7.030;2023-04-25T14:21:28;11.30;99.90
22623;DHT22;11478;51.094;7.030;2023-04-25T14:23:54;11.40;99.90
22623;DHT22;11478;51.094;7.030;2023-04-25T14:26:20;11.70;99.90
22623;DHT22;11478;51.094;7.030;2023-04-25T14:28:51;12.00;99.90
22623;DHT22;11478;51.094;7.030;2023-04-25T14:31:19;12.20;99.90
22623;DHT22;11478;51.094;7.030;2023-04-25T14:33:45;12.10;99.90
22623;DHT22;11478;51.094;7.030;2023-04-25T14:36:13;11.90;99.90
22623;DHT22;11478;51.094;7.030;2023-04-25T14:38:39;11.70;99.90
22623;DHT22;11478;51.094;7.030;2023-04-25T14:41:10;11.50;99.90
22623;DHT22;11478;51.094;7.030;2023-04-25T14:43:39;11.40;99.90
22623;DHT22;11478;51.094;7.030;2023-04-25T14:46:20;11.20;99.90
22623;DHT22;11478;51.094;7.030;2023-04-25T14:48:47;10.90;99.90
22623;DHT22;11478;51.094;7.030;2023-04-25T14:51:13;10.80;99.90
22623;DHT22;11478;51.094;7.030;2023-04-25T14:53:40;10.70;99.90
22623;DHT22;11478;51.094;7.030;2023-04-25T14:56:31;10.70;99.90
22623;DHT22;11478;51.094;7.030;2023-04-25T14:58:56;10.60;99.90
22623;DHT22;11478;51.094;7.030;2023-04-25T15:01:25;10.50;99.90
22623;DHT22;11478;51.094;7.030;2023-04-25T15:03:51;10.50;99.90
22623;DHT22;11478;51.094;7.030;2023-04-25T15:06:19;10.40;99.90
22623;DHT22;11478;51.094;7.030;2023-04-25T15:08:45;10.40;99.90
22623;DHT22;11478;51.094;7.030;2023-04-25T15:11:14;10.30;99.90
22623;DHT22;11478;51.094;7.030;2023-04-25T15:13:40;10.30;99.90
22623;DHT22;11478;51.094;7.030;2023-04-25T15:16:08;10.30;99.90
22623;DHT22;11478;51.094;7.030;2023-04-25T15:18:34;10.30;99.90
22623;DHT22;11478;51.094;7.030;2023-04-25T15:21:00;10.30;99.90
22623;DHT22;11478;51.094;7.030;2023-04-25T15:23:25;10.30;99.90
22623;DHT22;11478;51.094;7.030;2023-04-25T15:25:52;10.30;99.90
22623;DHT22;11478;51.094;7.030;2023-04-25T15:28:20;10.30;99.90
22623;DHT22;11478;51.094;7.030;2023-04-25T15:30:47;10.30;99.90
22623;DHT22;11478;51.094;7.030;2023-04-25T15:33:16;10.30;99.90
22623;DHT22;11478;51.094;7.030;2023-04-25T15:35:42;10.30;99.90
22623;DHT22;11478;51.094;7.030;2023-04-25T15:38:11;10.30;99.90
22623;DHT22;11478;51.094;7.030;2023-04-25T15:40:37;10.30;99.90
22623;DHT22;11478;51.094;7.030;2023-04-25T15:43:03;10.30;99.90
22623;DHT22;11478;51.094;7.030;2023-04-25T15:45:29;10.20;99.90
22623;DHT22;11478;51.094;7.030;2023-04-25T15:47:57;10.20;99.90
22623;DHT22;11478;51.094;7.030;2023-04-25T15:50:30;10.20;99.90
22623;DHT22;11478;51.094;7.030;2023-04-25T15:52:56;10.20;99.90
22623;DHT22;11478;51.094;7.030;2023-04-25T15:55:24;10.30;99.90
22623;DHT22;11478;51.094;7.030;2023-04-25T15:57:51;10.40;99.90
22623;DHT22;11478;51.094;7.030;2023-04-25T16:00:23;10.40;99.90